This is the latest recevied weather packets stored in our database for station/object S56WDN-10. If no packets are shown the sender has not sent any weather packets the latest 10 day(s).
| Time | Temp. | Humidity | Pressure | Rain* | Wind** | Luminosity | Snow |
|---|---|---|---|---|---|---|---|
| 1777340240 | 9.44° C | 76% | 1018.8 hPa | 0 mm | - | - | - |
| 1777339940 | 9.44° C | 76% | 1018.8 hPa | 0 mm | - | - | - |
| 1777339640 | 9.44° C | 76% | 1018.7 hPa | 0 mm | - | - | - |
| 1777339340 | 9.44° C | 76% | 1018.8 hPa | 0 mm | - | - | - |
| 1777339040 | 9.44° C | 75% | 1018.8 hPa | 0 mm | - | - | - |
| 1777338740 | 9.44° C | 76% | 1018.7 hPa | 0 mm | - | - | - |
| 1777338140 | 10° C | 75% | 1018.7 hPa | 0 mm | - | - | - |
| 1777337240 | 10° C | 74% | 1018.7 hPa | 0 mm | - | - | - |
| 1777336940 | 10° C | 74% | 1018.7 hPa | 0 mm | - | - | - |
| 1777336340 | 10° C | 73% | 1018.8 hPa | 0 mm | - | - | - |
| 1777334840 | 10° C | 74% | 1018.9 hPa | 0 mm | - | - | - |
| 1777313841 | 16.67° C | 45% | 1017.9 hPa | 0 mm | - | - | - |
| 1777313541 | 16.67° C | 44% | 1017.8 hPa | 0 mm | - | - | - |
| 1777313241 | 16.67° C | 43% | 1017.7 hPa | 0 mm | - | - | - |
| 1777312941 | 17.22° C | 42% | 1017.6 hPa | 0 mm | - | - | - |
| 1777312641 | 17.78° C | 42% | 1017.6 hPa | 0 mm | - | - | - |
| 1777311441 | 18.33° C | 40% | 1017.4 hPa | 0 mm | - | - | - |
| 1777311141 | 18.89° C | 39% | 1017.2 hPa | 0 mm | - | - | - |
| 1777310841 | 18.89° C | 39% | 1017.2 hPa | 0 mm | - | - | - |
| 1777310541 | 18.89° C | 38% | 1017.2 hPa | 0 mm | - | - | - |
| 1777310241 | 19.44° C | 38% | 1017.2 hPa | 0 mm | - | - | - |
| 1777309641 | 20° C | 37% | 1017.2 hPa | 0 mm | - | - | - |
| 1777309041 | 20.56° C | 36% | 1017.1 hPa | 0 mm | - | - | - |
| 1777308741 | 21.11° C | 35% | 1017 hPa | 0 mm | - | - | - |
| 1777307841 | 21.67° C | 34% | 1016.9 hPa | 0 mm | - | - | - |
* Rain latest hour (hover to see other rain measurements)
** Current wind speed in m/s (hover to see current wind gust speed)